sensor_id;sensor_type;location;lat;lon;timestamp;pressure;altitude;pressure_sealevel;temperature;humidity
64628;BME280;68467;50.960;0.314;2023-04-25T00:01:23;99648.92;;;3.24;100.00
64628;BME280;68467;50.960;0.314;2023-04-25T00:03:50;99645.05;;;2.85;100.00
64628;BME280;68467;50.960;0.314;2023-04-25T00:06:17;99640.31;;;3.28;100.00
64628;BME280;68467;50.960;0.314;2023-04-25T00:08:44;99643.27;;;2.85;100.00
64628;BME280;68467;50.960;0.314;2023-04-25T00:11:12;99647.52;;;2.66;100.00
64628;BME280;68467;50.960;0.314;2023-04-25T00:13:39;99650.02;;;2.43;100.00
64628;BME280;68467;50.960;0.314;2023-04-25T00:16:06;99649.21;;;2.80;100.00
64628;BME280;68467;50.960;0.314;2023-04-25T00:18:33;99651.64;;;3.22;100.00
64628;BME280;68467;50.960;0.314;2023-04-25T00:21:00;99653.88;;;2.74;100.00
64628;BME280;68467;50.960;0.314;2023-04-25T00:23:27;99648.90;;;3.14;100.00
64628;BME280;68467;50.960;0.314;2023-04-25T00:25:55;99656.38;;;3.16;100.00
64628;BME280;68467;50.960;0.314;2023-04-25T00:28:22;99656.12;;;3.09;100.00
64628;BME280;68467;50.960;0.314;2023-04-25T00:30:50;99656.28;;;3.25;100.00
64628;BME280;68467;50.960;0.314;2023-04-25T00:33:17;99655.87;;;2.71;100.00
64628;BME280;68467;50.960;0.314;2023-04-25T00:35:44;99650.48;;;2.98;100.00
64628;BME280;68467;50.960;0.314;2023-04-25T00:38:11;99654.21;;;2.50;100.00
64628;BME280;68467;50.960;0.314;2023-04-25T00:40:38;99656.82;;;2.61;100.00
64628;BME280;68467;50.960;0.314;2023-04-25T00:43:06;99661.87;;;2.66;100.00
64628;BME280;68467;50.960;0.314;2023-04-25T00:45:39;99665.93;;;2.32;100.00
64628;BME280;68467;50.960;0.314;2023-04-25T00:48:06;99668.71;;;2.29;100.00
64628;BME280;68467;50.960;0.314;2023-04-25T00:50:33;99673.83;;;2.58;100.00
64628;BME280;68467;50.960;0.314;2023-04-25T00:53:00;99678.24;;;3.08;100.00
64628;BME280;68467;50.960;0.314;2023-04-25T00:55:27;99676.59;;;2.49;100.00
64628;BME280;68467;50.960;0.314;2023-04-25T00:57:54;99677.72;;;3.09;100.00
64628;BME280;68467;50.960;0.314;2023-04-25T01:00:22;99682.73;;;2.61;100.00
64628;BME280;68467;50.960;0.314;2023-04-25T01:02:49;99689.36;;;2.90;100.00
64628;BME280;68467;50.960;0.314;2023-04-25T01:05:16;99689.06;;;2.71;100.00
64628;BME280;68467;50.960;0.314;2023-04-25T01:07:43;99698.03;;;3.22;100.00
64628;BME280;68467;50.960;0.314;2023-04-25T01:10:10;99694.09;;;3.03;100.00
64628;BME280;68467;50.960;0.314;2023-04-25T01:12:37;99700.17;;;2.69;100.00
64628;BME280;68467;50.960;0.314;2023-04-25T01:15:05;99702.31;;;2.57;100.00
64628;BME280;68467;50.960;0.314;2023-04-25T01:17:34;99710.27;;;2.77;100.00
64628;BME280;68467;50.960;0.314;2023-04-25T01:20:04;99716.77;;;2.28;100.00
64628;BME280;68467;50.960;0.314;2023-04-25T01:22:31;99715.88;;;2.89;100.00
64628;BME280;68467;50.960;0.314;2023-04-25T01:24:59;99719.32;;;3.02;100.00
64628;BME280;68467;50.960;0.314;2023-04-25T01:27:27;99718.26;;;2.92;100.00
64628;BME280;68467;50.960;0.314;2023-04-25T01:29:55;99723.47;;;2.34;100.00
64628;BME280;68467;50.960;0.314;2023-04-25T01:32:23;99723.81;;;2.84;100.00
64628;BME280;68467;50.960;0.314;2023-04-25T01:34:50;99724.63;;;3.09;100.00
64628;BME280;68467;50.960;0.314;2023-04-25T01:37:17;99726.23;;;2.89;100.00
64628;BME280;68467;50.960;0.314;2023-04-25T01:39:45;99725.86;;;3.00;100.00
64628;BME280;68467;50.960;0.314;2023-04-25T01:42:13;99725.74;;;3.25;100.00
64628;BME280;68467;50.960;0.314;2023-04-25T01:44:40;99729.85;;;2.79;100.00
64628;BME280;68467;50.960;0.314;2023-04-25T01:47:07;99727.76;;;3.09;100.00
64628;BME280;68467;50.960;0.314;2023-04-25T01:49:34;99730.52;;;2.60;100.00
64628;BME280;68467;50.960;0.314;2023-04-25T01:52:02;99728.93;;;3.23;100.00
64628;BME280;68467;50.960;0.314;2023-04-25T01:54:29;99732.70;;;2.76;100.00
64628;BME280;68467;50.960;0.314;2023-04-25T01:56:57;99727.80;;;3.11;100.00
64628;BME280;68467;50.960;0.314;2023-04-25T01:59:24;99730.62;;;2.49;100.00
64628;BME280;68467;50.960;0.314;2023-04-25T02:01:51;99725.40;;;2.78;100.00
64628;BME280;68467;50.960;0.314;2023-04-25T02:04:18;99725.87;;;2.26;100.00
64628;BME280;68467;50.960;0.314;2023-04-25T02:06:45;99726.29;;;2.37;100.00
64628;BME280;68467;50.960;0.314;2023-04-25T02:09:17;99732.35;;;2.83;100.00
64628;BME280;68467;50.960;0.314;2023-04-25T02:11:44;99728.48;;;2.74;100.00
64628;BME280;68467;50.960;0.314;2023-04-25T02:14:11;99726.81;;;2.88;100.00
64628;BME280;68467;50.960;0.314;2023-04-25T02:16:39;99734.76;;;2.60;100.00
64628;BME280;68467;50.960;0.314;2023-04-25T02:19:54;99736.93;;;2.04;100.00
64628;BME280;68467;50.960;0.314;2023-04-25T02:22:21;99741.98;;;3.20;100.00
64628;BME280;68467;50.960;0.314;2023-04-25T02:24:48;99748.89;;;2.64;100.00
64628;BME280;68467;50.960;0.314;2023-04-25T02:27:15;99753.51;;;2.31;100.00
64628;BME280;68467;50.960;0.314;2023-04-25T02:29:48;99746.56;;;2.03;100.00
64628;BME280;68467;50.960;0.314;2023-04-25T02:32:16;99745.74;;;2.32;100.00
64628;BME280;68467;50.960;0.314;2023-04-25T02:34:43;99739.35;;;2.56;100.00
64628;BME280;68467;50.960;0.314;2023-04-25T02:37:11;99741.08;;;2.23;100.00
64628;BME280;68467;50.960;0.314;2023-04-25T02:39:38;99744.03;;;1.33;100.00
64628;BME280;68467;50.960;0.314;2023-04-25T02:42:05;99747.22;;;1.86;100.00
64628;BME280;68467;50.960;0.314;2023-04-25T02:44:32;99751.95;;;2.07;100.00
64628;BME280;68467;50.960;0.314;2023-04-25T02:46:59;99759.67;;;2.29;100.00
64628;BME280;68467;50.960;0.314;2023-04-25T02:49:26;99763.95;;;2.66;100.00
64628;BME280;68467;50.960;0.314;2023-04-25T02:51:53;99761.75;;;3.30;100.00
64628;BME280;68467;50.960;0.314;2023-04-25T02:54:20;99768.01;;;2.23;100.00
64628;BME280;68467;50.960;0.314;2023-04-25T02:56:48;99771.03;;;3.07;100.00
64628;BME280;68467;50.960;0.314;2023-04-25T02:59:15;99776.53;;;3.01;100.00
64628;BME280;68467;50.960;0.314;2023-04-25T03:01:42;99782.14;;;2.57;100.00
64628;BME280;68467;50.960;0.314;2023-04-25T03:04:09;99784.77;;;2.79;100.00
64628;BME280;68467;50.960;0.314;2023-04-25T03:06:37;99783.33;;;2.65;100.00
64628;BME280;68467;50.960;0.314;2023-04-25T03:09:05;99786.36;;;1.89;100.00
64628;BME280;68467;50.960;0.314;2023-04-25T03:11:32;99783.67;;;2.41;100.00
64628;BME280;68467;50.960;0.314;2023-04-25T03:13:59;99774.63;;;2.66;100.00
64628;BME280;68467;50.960;0.314;2023-04-25T03:16:26;99777.17;;;2.27;100.00
64628;BME280;68467;50.960;0.314;2023-04-25T03:18:53;99774.18;;;2.41;100.00
64628;BME280;68467;50.960;0.314;2023-04-25T03:21:21;99769.37;;;3.30;100.00
64628;BME280;68467;50.960;0.314;2023-04-25T03:23:56;99776.50;;;2.14;100.00
64628;BME280;68467;50.960;0.314;2023-04-25T03:26:23;99780.98;;;1.96;100.00
64628;BME280;68467;50.960;0.314;2023-04-25T03:28:50;99777.04;;;2.55;100.00
64628;BME280;68467;50.960;0.314;2023-04-25T03:31:23;99779.47;;;2.41;100.00
64628;BME280;68467;50.960;0.314;2023-04-25T03:33:50;99780.85;;;1.88;100.00
64628;BME280;68467;50.960;0.314;2023-04-25T03:36:17;99783.03;;;2.20;100.00
64628;BME280;68467;50.960;0.314;2023-04-25T03:38:45;99784.41;;;1.81;100.00
64628;BME280;68467;50.960;0.314;2023-04-25T03:41:12;99787.76;;;0.84;100.00
64628;BME280;68467;50.960;0.314;2023-04-25T03:43:39;99791.11;;;1.22;100.00
64628;BME280;68467;50.960;0.314;2023-04-25T03:46:06;99791.52;;;1.31;100.00
64628;BME280;68467;50.960;0.314;2023-04-25T03:48:33;99793.60;;;1.06;100.00
64628;BME280;68467;50.960;0.314;2023-04-25T03:51:01;99802.35;;;1.13;100.00
64628;BME280;68467;50.960;0.314;2023-04-25T03:53:28;99805.09;;;0.57;100.00
64628;BME280;68467;50.960;0.314;2023-04-25T03:56:26;99807.89;;;0.44;100.00
64628;BME280;68467;50.960;0.314;2023-04-25T03:58:54;99804.98;;;0.70;100.00
64628;BME280;68467;50.960;0.314;2023-04-25T04:01:21;99811.61;;;0.08;100.00
64628;BME280;68467;50.960;0.314;2023-04-25T04:03:48;99813.56;;;0.32;100.00
64628;BME280;68467;50.960;0.314;2023-04-25T04:06:17;99815.84;;;0.67;100.00
64628;BME280;68467;50.960;0.314;2023-04-25T04:08:44;99824.44;;;0.99;100.00
64628;BME280;68467;50.960;0.314;2023-04-25T04:11:11;99830.21;;;0.37;100.00
64628;BME280;68467;50.960;0.314;2023-04-25T04:13:38;99832.10;;;0.44;100.00
64628;BME280;68467;50.960;0.314;2023-04-25T04:16:06;99832.52;;;0.80;100.00
64628;BME280;68467;50.960;0.314;2023-04-25T04:18:33;99837.19;;;1.27;100.00
64628;BME280;68467;50.960;0.314;2023-04-25T04:21:02;99836.39;;;1.48;100.00
64628;BME280;68467;50.960;0.314;2023-04-25T04:23:29;99837.72;;;1.60;100.00
64628;BME280;68467;50.960;0.314;2023-04-25T04:25:56;99842.77;;;0.72;100.00
64628;BME280;68467;50.960;0.314;2023-04-25T04:28:24;99842.86;;;1.46;100.00
64628;BME280;68467;50.960;0.314;2023-04-25T04:30:51;99846.53;;;0.83;100.00
64628;BME280;68467;50.960;0.314;2023-04-25T04:33:18;99849.99;;;1.09;100.00
64628;BME280;68467;50.960;0.314;2023-04-25T04:35:45;99853.23;;;1.13;100.00
64628;BME280;68467;50.960;0.314;2023-04-25T04:38:13;99857.70;;;0.93;100.00
64628;BME280;68467;50.960;0.314;2023-04-25T04:40:40;99867.28;;;1.60;100.00
64628;BME280;68467;50.960;0.314;2023-04-25T04:43:07;99867.59;;;1.07;100.00
64628;BME280;68467;50.960;0.314;2023-04-25T04:45:35;99866.40;;;1.55;100.00
64628;BME280;68467;50.960;0.314;2023-04-25T04:48:08;99868.38;;;1.34;100.00
64628;BME280;68467;50.960;0.314;2023-04-25T04:50:36;99873.04;;;0.44;100.00
64628;BME280;68467;50.960;0.314;2023-04-25T04:53:04;99876.37;;;0.80;100.00
64628;BME280;68467;50.960;0.314;2023-04-25T04:55:32;99888.03;;;1.02;100.00
64628;BME280;68467;50.960;0.314;2023-04-25T04:57:59;99893.68;;;0.77;100.00
64628;BME280;68467;50.960;0.314;2023-04-25T05:00:27;99896.41;;;1.07;100.00
64628;BME280;68467;50.960;0.314;2023-04-25T05:02:54;99903.27;;;0.89;100.00
64628;BME280;68467;50.960;0.314;2023-04-25T05:05:22;99907.08;;;0.63;100.00
64628;BME280;68467;50.960;0.314;2023-04-25T05:07:49;99920.43;;;1.19;100.00
64628;BME280;68467;50.960;0.314;2023-04-25T05:10:16;99921.77;;;1.03;100.00
64628;BME280;68467;50.960;0.314;2023-04-25T05:12:44;99920.97;;;1.06;100.00
64628;BME280;68467;50.960;0.314;2023-04-25T05:15:11;99925.37;;;1.23;100.00
64628;BME280;68467;50.960;0.314;2023-04-25T05:17:39;99928.99;;;0.85;100.00
64628;BME280;68467;50.960;0.314;2023-04-25T05:20:07;99932.91;;;0.25;100.00
64628;BME280;68467;50.960;0.314;2023-04-25T05:22:35;99929.63;;;0.78;100.00
64628;BME280;68467;50.960;0.314;2023-04-25T05:25:04;99933.51;;;0.65;100.00
64628;BME280;68467;50.960;0.314;2023-04-25T05:27:31;99936.83;;;1.23;100.00
64628;BME280;68467;50.960;0.314;2023-04-25T05:29:58;99934.50;;;0.81;100.00
64628;BME280;68467;50.960;0.314;2023-04-25T05:32:26;99938.45;;;0.63;100.00
64628;BME280;68467;50.960;0.314;2023-04-25T05:34:54;99942.57;;;0.08;100.00
64628;BME280;68467;50.960;0.314;2023-04-25T05:37:21;99933.22;;;0.71;100.00
64628;BME280;68467;50.960;0.314;2023-04-25T05:39:48;99934.69;;;0.75;100.00
64628;BME280;68467;50.960;0.314;2023-04-25T05:42:16;99938.12;;;0.75;100.00
64628;BME280;68467;50.960;0.314;2023-04-25T05:44:44;99942.94;;;0.80;100.00
64628;BME280;68467;50.960;0.314;2023-04-25T05:47:11;99951.16;;;0.41;100.00
64628;BME280;68467;50.960;0.314;2023-04-25T05:49:39;99952.53;;;0.22;100.00
64628;BME280;68467;50.960;0.314;2023-04-25T05:52:06;99957.61;;;-0.14;100.00
64628;BME280;68467;50.960;0.314;2023-04-25T05:54:34;99962.04;;;0.12;100.00
64628;BME280;68467;50.960;0.314;2023-04-25T05:57:02;99964.83;;;0.77;100.00
64628;BME280;68467;50.960;0.314;2023-04-25T05:59:30;99971.14;;;0.73;100.00
64628;BME280;68467;50.960;0.314;2023-04-25T06:01:58;99978.36;;;0.10;100.00
64628;BME280;68467;50.960;0.314;2023-04-25T06:04:25;99983.72;;;0.43;100.00
64628;BME280;68467;50.960;0.314;2023-04-25T06:06:53;99984.00;;;1.23;100.00
64628;BME280;68467;50.960;0.314;2023-04-25T06:09:20;99983.14;;;1.36;100.00
64628;BME280;68467;50.960;0.314;2023-04-25T06:11:48;99984.12;;;1.38;100.00
64628;BME280;68467;50.960;0.314;2023-04-25T06:14:16;99984.16;;;0.41;100.00
64628;BME280;68467;50.960;0.314;2023-04-25T06:16:43;99987.69;;;0.60;100.00
64628;BME280;68467;50.960;0.314;2023-04-25T06:19:10;99992.55;;;0.79;100.00
64628;BME280;68467;50.960;0.314;2023-04-25T06:21:38;99996.28;;;0.56;100.00
64628;BME280;68467;50.960;0.314;2023-04-25T06:24:06;99991.59;;;0.67;100.00
64628;BME280;68467;50.960;0.314;2023-04-25T06:26:33;99989.10;;;0.75;100.00
64628;BME280;68467;50.960;0.314;2023-04-25T06:29:01;99988.47;;;0.98;100.00
64628;BME280;68467;50.960;0.314;2023-04-25T06:31:29;99987.81;;;1.03;100.00
64628;BME280;68467;50.960;0.314;2023-04-25T06:33:56;99989.36;;;0.69;100.00
64628;BME280;68467;50.960;0.314;2023-04-25T06:36:23;99992.62;;;0.81;100.00
64628;BME280;68467;50.960;0.314;2023-04-25T06:38:50;99997.27;;;0.79;100.00
64628;BME280;68467;50.960;0.314;2023-04-25T06:41:18;99997.40;;;0.79;100.00
64628;BME280;68467;50.960;0.314;2023-04-25T06:43:45;99995.71;;;1.06;100.00
64628;BME280;68467;50.960;0.314;2023-04-25T06:46:13;99993.30;;;0.97;100.00
64628;BME280;68467;50.960;0.314;2023-04-25T06:48:41;99990.75;;;1.12;100.00
64628;BME280;68467;50.960;0.314;2023-04-25T06:51:08;99993.79;;;1.89;100.00
64628;BME280;68467;50.960;0.314;2023-04-25T06:53:35;99995.83;;;1.82;100.00
64628;BME280;68467;50.960;0.314;2023-04-25T06:56:03;99999.07;;;1.51;100.00
64628;BME280;68467;50.960;0.314;2023-04-25T06:58:31;100002.42;;;3.11;100.00
64628;BME280;68467;50.960;0.314;2023-04-25T07:00:58;100003.33;;;2.55;100.00
64628;BME280;68467;50.960;0.314;2023-04-25T07:03:26;100009.35;;;1.82;100.00
64628;BME280;68467;50.960;0.314;2023-04-25T07:05:53;100015.68;;;2.55;100.00
64628;BME280;68467;50.960;0.314;2023-04-25T07:08:21;100020.67;;;2.94;100.00
64628;BME280;68467;50.960;0.314;2023-04-25T07:10:48;100023.21;;;3.11;100.00
64628;BME280;68467;50.960;0.314;2023-04-25T07:13:16;100016.62;;;3.28;100.00
64628;BME280;68467;50.960;0.314;2023-04-25T07:15:44;100023.04;;;2.81;100.00
64628;BME280;68467;50.960;0.314;2023-04-25T07:18:11;100026.16;;;3.46;100.00
64628;BME280;68467;50.960;0.314;2023-04-25T07:20:39;100025.10;;;3.16;100.00
64628;BME280;68467;50.960;0.314;2023-04-25T07:23:06;100026.90;;;3.00;100.00
64628;BME280;68467;50.960;0.314;2023-04-25T07:25:33;100028.07;;;2.92;100.00
64628;BME280;68467;50.960;0.314;2023-04-25T07:28:00;100028.47;;;3.23;100.00
64628;BME280;68467;50.960;0.314;2023-04-25T07:30:27;100025.35;;;3.98;100.00
64628;BME280;68467;50.960;0.314;2023-04-25T07:32:54;100027.55;;;3.49;100.00
64628;BME280;68467;50.960;0.314;2023-04-25T07:35:22;100033.30;;;3.84;100.00
64628;BME280;68467;50.960;0.314;2023-04-25T07:37:49;100036.14;;;3.83;100.00
64628;BME280;68467;50.960;0.314;2023-04-25T07:40:16;100043.11;;;3.20;100.00
64628;BME280;68467;50.960;0.314;2023-04-25T07:42:43;100043.61;;;2.99;100.00
64628;BME280;68467;50.960;0.314;2023-04-25T07:45:11;100041.94;;;3.01;100.00
64628;BME280;68467;50.960;0.314;2023-04-25T07:47:39;100043.58;;;3.53;100.00
64628;BME280;68467;50.960;0.314;2023-04-25T07:50:07;100046.09;;;4.17;100.00
64628;BME280;68467;50.960;0.314;2023-04-25T07:52:35;100053.03;;;4.65;100.00
64628;BME280;68467;50.960;0.314;2023-04-25T07:55:02;100058.00;;;4.85;100.00
64628;BME280;68467;50.960;0.314;2023-04-25T07:57:30;100059.44;;;4.44;100.00
64628;BME280;68467;50.960;0.314;2023-04-25T07:59:57;100062.65;;;4.75;100.00
64628;BME280;68467;50.960;0.314;2023-04-25T08:02:25;100059.50;;;4.97;100.00
64628;BME280;68467;50.960;0.314;2023-04-25T08:04:52;100062.15;;;4.72;100.00
64628;BME280;68467;50.960;0.314;2023-04-25T08:07:19;100065.72;;;4.52;100.00
64628;BME280;68467;50.960;0.314;2023-04-25T08:09:46;100072.03;;;4.52;100.00
64628;BME280;68467;50.960;0.314;2023-04-25T08:12:13;100072.41;;;4.93;100.00
64628;BME280;68467;50.960;0.314;2023-04-25T08:14:41;100082.71;;;3.72;100.00
64628;BME280;68467;50.960;0.314;2023-04-25T08:17:09;100078.88;;;4.78;100.00
64628;BME280;68467;50.960;0.314;2023-04-25T08:19:37;100082.48;;;4.83;100.00
64628;BME280;68467;50.960;0.314;2023-04-25T08:22:04;100084.05;;;5.88;100.00
64628;BME280;68467;50.960;0.314;2023-04-25T08:24:32;100088.46;;;6.07;100.00
64628;BME280;68467;50.960;0.314;2023-04-25T08:26:59;100091.02;;;6.24;100.00
64628;BME280;68467;50.960;0.314;2023-04-25T08:29:27;100090.66;;;5.97;100.00
64628;BME280;68467;50.960;0.314;2023-04-25T08:31:54;100097.94;;;5.64;100.00
64628;BME280;68467;50.960;0.314;2023-04-25T08:34:21;100096.96;;;5.77;100.00
64628;BME280;68467;50.960;0.314;2023-04-25T08:36:49;100094.79;;;4.98;100.00
64628;BME280;68467;50.960;0.314;2023-04-25T08:39:16;100097.22;;;4.99;100.00
64628;BME280;68467;50.960;0.314;2023-04-25T08:41:44;100094.36;;;5.80;100.00
64628;BME280;68467;50.960;0.314;2023-04-25T08:44:12;100100.54;;;5.78;100.00
64628;BME280;68467;50.960;0.314;2023-04-25T08:46:40;100102.03;;;5.85;100.00
64628;BME280;68467;50.960;0.314;2023-04-25T08:49:08;100102.82;;;5.02;100.00
64628;BME280;68467;50.960;0.314;2023-04-25T08:51:42;100100.33;;;5.79;100.00
64628;BME280;68467;50.960;0.314;2023-04-25T08:54:13;100100.17;;;5.72;100.00
64628;BME280;68467;50.960;0.314;2023-04-25T08:56:43;100092.63;;;5.53;100.00
64628;BME280;68467;50.960;0.314;2023-04-25T08:59:11;100103.08;;;5.01;100.00
64628;BME280;68467;50.960;0.314;2023-04-25T09:01:39;100101.33;;;5.79;100.00
64628;BME280;68467;50.960;0.314;2023-04-25T09:04:07;100102.25;;;5.74;100.00
64628;BME280;68467;50.960;0.314;2023-04-25T09:06:35;100103.76;;;5.76;100.00
64628;BME280;68467;50.960;0.314;2023-04-25T09:09:04;100107.17;;;6.35;100.00
64628;BME280;68467;50.960;0.314;2023-04-25T09:11:32;100107.93;;;6.17;100.00
64628;BME280;68467;50.960;0.314;2023-04-25T09:14:16;100114.53;;;5.14;100.00
64628;BME280;68467;50.960;0.314;2023-04-25T09:17:02;100120.12;;;5.04;100.00
64628;BME280;68467;50.960;0.314;2023-04-25T09:19:31;100122.28;;;4.93;100.00
64628;BME280;68467;50.960;0.314;2023-04-25T09:22:00;100118.72;;;5.18;100.00
64628;BME280;68467;50.960;0.314;2023-04-25T09:24:36;100119.28;;;5.93;100.00
64628;BME280;68467;50.960;0.314;2023-04-25T09:27:05;100118.51;;;5.43;100.00
64628;BME280;68467;50.960;0.314;2023-04-25T09:29:33;100121.95;;;5.32;100.00
64628;BME280;68467;50.960;0.314;2023-04-25T09:32:19;100122.76;;;5.37;100.00
64628;BME280;68467;50.960;0.314;2023-04-25T09:34:48;100115.64;;;5.25;100.00
64628;BME280;68467;50.960;0.314;2023-04-25T09:37:18;100120.05;;;5.50;100.00
64628;BME280;68467;50.960;0.314;2023-04-25T09:39:47;100121.14;;;4.26;100.00
64628;BME280;68467;50.960;0.314;2023-04-25T09:42:15;100111.73;;;5.17;100.00
64628;BME280;68467;50.960;0.314;2023-04-25T09:44:43;100111.99;;;5.99;100.00
64628;BME280;68467;50.960;0.314;2023-04-25T09:47:12;100111.76;;;5.22;100.00
64628;BME280;68467;50.960;0.314;2023-04-25T09:49:41;100108.14;;;7.00;100.00
64628;BME280;68467;50.960;0.314;2023-04-25T09:52:13;100113.42;;;5.56;100.00
64628;BME280;68467;50.960;0.314;2023-04-25T09:54:41;100109.15;;;5.94;100.00
64628;BME280;68467;50.960;0.314;2023-04-25T09:57:12;100104.80;;;6.81;100.00
64628;BME280;68467;50.960;0.314;2023-04-25T09:59:43;100103.90;;;7.27;100.00
64628;BME280;68467;50.960;0.314;2023-04-25T10:02:11;100098.58;;;7.25;100.00
64628;BME280;68467;50.960;0.314;2023-04-25T10:04:47;100095.20;;;7.67;100.00
64628;BME280;68467;50.960;0.314;2023-04-25T10:07:15;100096.05;;;7.50;100.00
64628;BME280;68467;50.960;0.314;2023-04-25T10:09:47;100106.52;;;6.74;100.00
64628;BME280;68467;50.960;0.314;2023-04-25T10:12:14;100109.58;;;7.28;100.00
64628;BME280;68467;50.960;0.314;2023-04-25T10:14:43;100107.10;;;8.03;100.00
64628;BME280;68467;50.960;0.314;2023-04-25T10:17:11;100113.53;;;7.16;100.00
64628;BME280;68467;50.960;0.314;2023-04-25T10:19:39;100112.97;;;7.74;100.00
64628;BME280;68467;50.960;0.314;2023-04-25T10:22:08;100116.08;;;7.54;100.00
64628;BME280;68467;50.960;0.314;2023-04-25T10:24:39;100114.76;;;8.59;100.00
64628;BME280;68467;50.960;0.314;2023-04-25T10:27:08;100103.19;;;9.37;100.00
64628;BME280;68467;50.960;0.314;2023-04-25T10:29:35;100110.49;;;8.99;91.66
64628;BME280;68467;50.960;0.314;2023-04-25T10:32:03;100115.98;;;8.37;92.44
64628;BME280;68467;50.960;0.314;2023-04-25T10:34:39;100121.61;;;8.50;89.20
64628;BME280;68467;50.960;0.314;2023-04-25T10:37:09;100123.12;;;8.49;96.19
64628;BME280;68467;50.960;0.314;2023-04-25T10:39:39;100122.38;;;8.61;86.78
64628;BME280;68467;50.960;0.314;2023-04-25T10:42:07;100117.56;;;7.48;92.43
64628;BME280;68467;50.960;0.314;2023-04-25T10:44:37;100120.65;;;9.32;92.71
64628;BME280;68467;50.960;0.314;2023-04-25T10:47:07;100124.01;;;8.58;92.42
64628;BME280;68467;50.960;0.314;2023-04-25T10:49:36;100128.17;;;7.43;94.90
64628;BME280;68467;50.960;0.314;2023-04-25T10:52:13;100130.25;;;7.21;92.49
64628;BME280;68467;50.960;0.314;2023-04-25T10:54:41;100127.55;;;8.54;89.73
64628;BME280;68467;50.960;0.314;2023-04-25T10:57:27;100124.28;;;8.90;85.22
64628;BME280;68467;50.960;0.314;2023-04-25T10:59:54;100122.15;;;8.61;88.44
64628;BME280;68467;50.960;0.314;2023-04-25T11:02:26;100111.48;;;9.67;79.04
64628;BME280;68467;50.960;0.314;2023-04-25T11:04:54;100104.09;;;10.02;86.16
64628;BME280;68467;50.960;0.314;2023-04-25T11:07:31;100108.22;;;10.02;88.82
64628;BME280;68467;50.960;0.314;2023-04-25T11:10:02;100107.84;;;9.65;75.55
64628;BME280;68467;50.960;0.314;2023-04-25T11:12:31;100104.52;;;10.55;91.55
64628;BME280;68467;50.960;0.314;2023-04-25T11:15:00;100105.79;;;9.93;92.10
64628;BME280;68467;50.960;0.314;2023-04-25T11:17:28;100107.14;;;9.34;87.32
64628;BME280;68467;50.960;0.314;2023-04-25T11:19:56;100100.47;;;10.53;78.40
64628;BME280;68467;50.960;0.314;2023-04-25T11:22:26;100104.80;;;10.21;77.60
64628;BME280;68467;50.960;0.314;2023-04-25T11:24:53;100106.14;;;10.04;83.15
64628;BME280;68467;50.960;0.314;2023-04-25T11:27:21;100104.74;;;9.06;78.76
64628;BME280;68467;50.960;0.314;2023-04-25T11:29:49;100095.20;;;9.88;84.77
64628;BME280;68467;50.960;0.314;2023-04-25T11:32:18;100090.22;;;10.75;72.47
64628;BME280;68467;50.960;0.314;2023-04-25T11:34:46;100097.40;;;9.71;78.04
64628;BME280;68467;50.960;0.314;2023-04-25T11:37:14;100110.67;;;9.12;83.61
64628;BME280;68467;50.960;0.314;2023-04-25T11:39:44;100110.15;;;9.45;89.58
64628;BME280;68467;50.960;0.314;2023-04-25T11:42:12;100112.33;;;8.89;86.97
64628;BME280;68467;50.960;0.314;2023-04-25T11:44:44;100111.81;;;9.27;78.62
64628;BME280;68467;50.960;0.314;2023-04-25T11:47:12;100108.30;;;10.09;77.25
64628;BME280;68467;50.960;0.314;2023-04-25T11:49:39;100118.44;;;8.90;81.77
64628;BME280;68467;50.960;0.314;2023-04-25T11:52:06;100110.96;;;10.83;68.91
64628;BME280;68467;50.960;0.314;2023-04-25T11:54:36;100109.67;;;10.18;65.63
64628;BME280;68467;50.960;0.314;2023-04-25T11:57:03;100111.26;;;8.98;74.50
64628;BME280;68467;50.960;0.314;2023-04-25T11:59:31;100119.75;;;8.61;83.13
64628;BME280;68467;50.960;0.314;2023-04-25T12:01:59;100119.34;;;8.64;82.81
64628;BME280;68467;50.960;0.314;2023-04-25T12:04:26;100120.96;;;8.61;82.10
64628;BME280;68467;50.960;0.314;2023-04-25T12:06:54;100116.09;;;8.16;82.76
64628;BME280;68467;50.960;0.314;2023-04-25T12:09:28;100109.72;;;9.35;88.03
64628;BME280;68467;50.960;0.314;2023-04-25T12:11:57;100109.14;;;9.90;83.34
64628;BME280;68467;50.960;0.314;2023-04-25T12:14:27;100115.37;;;9.43;85.11
64628;BME280;68467;50.960;0.314;2023-04-25T12:16:56;100123.43;;;8.78;82.35
64628;BME280;68467;50.960;0.314;2023-04-25T12:19:24;100128.55;;;8.45;80.36
64628;BME280;68467;50.960;0.314;2023-04-25T12:21:52;100129.79;;;8.49;79.46
64628;BME280;68467;50.960;0.314;2023-04-25T12:24:23;100134.50;;;7.25;78.85
64628;BME280;68467;50.960;0.314;2023-04-25T12:26:51;100137.31;;;8.37;75.97
64628;BME280;68467;50.960;0.314;2023-04-25T12:29:21;100141.81;;;7.68;82.26
64628;BME280;68467;50.960;0.314;2023-04-25T12:31:51;100142.27;;;8.93;77.40
64628;BME280;68467;50.960;0.314;2023-04-25T12:34:18;100138.18;;;9.05;83.60
64628;BME280;68467;50.960;0.314;2023-04-25T12:36:46;100136.79;;;9.18;89.89
64628;BME280;68467;50.960;0.314;2023-04-25T12:39:16;100143.54;;;8.95;81.47
64628;BME280;68467;50.960;0.314;2023-04-25T12:41:44;100136.75;;;8.97;76.53
64628;BME280;68467;50.960;0.314;2023-04-25T12:44:12;100144.16;;;8.02;81.29
64628;BME280;68467;50.960;0.314;2023-04-25T12:46:40;100146.49;;;8.47;79.86
64628;BME280;68467;50.960;0.314;2023-04-25T12:49:08;100148.46;;;9.25;80.26
64628;BME280;68467;50.960;0.314;2023-04-25T12:51:36;100151.81;;;8.62;81.59
64628;BME280;68467;50.960;0.314;2023-04-25T12:54:05;100153.98;;;8.21;82.27
64628;BME280;68467;50.960;0.314;2023-04-25T12:56:33;100148.06;;;9.23;82.73
64628;BME280;68467;50.960;0.314;2023-04-25T12:59:00;100137.06;;;10.71;69.08
64628;BME280;68467;50.960;0.314;2023-04-25T13:01:28;100143.94;;;9.28;75.32
64628;BME280;68467;50.960;0.314;2023-04-25T13:03:56;100148.01;;;8.66;84.04